sensor_id;sensor_type;location;lat;lon;timestamp;P1;durP1;ratioP1;P2;durP2;ratioP2
42912;SDS011;50720;54.324;18.558;2022-11-15T00:00:36;60.53;;;32.13;;
42912;SDS011;50720;54.324;18.558;2022-11-15T00:03:06;66.80;;;32.88;;
42912;SDS011;50720;54.324;18.558;2022-11-15T00:05:37;62.42;;;30.35;;
42912;SDS011;50720;54.324;18.558;2022-11-15T00:08:06;61.13;;;32.17;;
42912;SDS011;50720;54.324;18.558;2022-11-15T00:10:36;60.67;;;30.60;;
42912;SDS011;50720;54.324;18.558;2022-11-15T00:13:06;61.50;;;32.83;;
42912;SDS011;50720;54.324;18.558;2022-11-15T00:15:37;67.72;;;32.55;;
42912;SDS011;50720;54.324;18.558;2022-11-15T00:18:10;66.57;;;32.67;;
42912;SDS011;50720;54.324;18.558;2022-11-15T00:20:42;67.22;;;31.05;;
42912;SDS011;50720;54.324;18.558;2022-11-15T00:23:13;63.15;;;30.05;;
42912;SDS011;50720;54.324;18.558;2022-11-15T00:25:42;65.07;;;32.30;;
42912;SDS011;50720;54.324;18.558;2022-11-15T00:28:12;64.38;;;31.42;;
42912;SDS011;50720;54.324;18.558;2022-11-15T00:30:41;65.15;;;31.58;;
42912;SDS011;50720;54.324;18.558;2022-11-15T00:33:12;67.05;;;30.52;;
42912;SDS011;50720;54.324;18.558;2022-11-15T00:35:42;64.43;;;31.73;;
42912;SDS011;50720;54.324;18.558;2022-11-15T00:38:12;61.03;;;32.55;;
42912;SDS011;50720;54.324;18.558;2022-11-15T00:40:42;64.25;;;31.38;;
42912;SDS011;50720;54.324;18.558;2022-11-15T00:43:12;64.72;;;31.33;;
42912;SDS011;50720;54.324;18.558;2022-11-15T00:45:41;61.97;;;30.83;;
42912;SDS011;50720;54.324;18.558;2022-11-15T00:48:12;66.53;;;30.80;;
42912;SDS011;50720;54.324;18.558;2022-11-15T00:50:43;63.60;;;32.92;;
42912;SDS011;50720;54.324;18.558;2022-11-15T00:53:13;77.15;;;35.15;;
42912;SDS011;50720;54.324;18.558;2022-11-15T00:55:42;87.47;;;38.55;;
42912;SDS011;50720;54.324;18.558;2022-11-15T00:58:12;83.72;;;37.33;;
42912;SDS011;50720;54.324;18.558;2022-11-15T01:00:42;78.43;;;36.90;;
42912;SDS011;50720;54.324;18.558;2022-11-15T01:03:12;87.73;;;37.03;;
42912;SDS011;50720;54.324;18.558;2022-11-15T01:05:43;86.30;;;38.92;;
42912;SDS011;50720;54.324;18.558;2022-11-15T01:08:13;85.57;;;37.97;;
42912;SDS011;50720;54.324;18.558;2022-11-15T01:10:43;84.73;;;38.80;;
42912;SDS011;50720;54.324;18.558;2022-11-15T01:13:13;83.70;;;35.07;;
42912;SDS011;50720;54.324;18.558;2022-11-15T01:15:42;80.28;;;34.22;;
42912;SDS011;50720;54.324;18.558;2022-11-15T01:18:13;86.85;;;37.15;;
42912;SDS011;50720;54.324;18.558;2022-11-15T01:20:44;79.80;;;35.35;;
42912;SDS011;50720;54.324;18.558;2022-11-15T01:23:14;83.45;;;35.47;;
42912;SDS011;50720;54.324;18.558;2022-11-15T01:25:43;75.97;;;34.70;;
42912;SDS011;50720;54.324;18.558;2022-11-15T01:28:14;77.55;;;32.72;;
42912;SDS011;50720;54.324;18.558;2022-11-15T01:30:43;80.38;;;33.28;;
42912;SDS011;50720;54.324;18.558;2022-11-15T01:33:13;73.57;;;33.15;;
42912;SDS011;50720;54.324;18.558;2022-11-15T01:35:44;79.20;;;32.28;;
42912;SDS011;50720;54.324;18.558;2022-11-15T01:38:14;87.07;;;33.35;;
42912;SDS011;50720;54.324;18.558;2022-11-15T01:40:43;83.32;;;33.50;;
42912;SDS011;50720;54.324;18.558;2022-11-15T01:43:19;76.57;;;32.05;;
42912;SDS011;50720;54.324;18.558;2022-11-15T01:45:51;80.90;;;34.25;;
42912;SDS011;50720;54.324;18.558;2022-11-15T01:48:24;83.38;;;34.97;;
42912;SDS011;50720;54.324;18.558;2022-11-15T01:50:59;89.32;;;35.03;;
42912;SDS011;50720;54.324;18.558;2022-11-15T01:53:32;87.57;;;35.97;;
42912;SDS011;50720;54.324;18.558;2022-11-15T01:56:06;87.47;;;33.83;;
42912;SDS011;50720;54.324;18.558;2022-11-15T01:58:38;79.57;;;32.30;;
42912;SDS011;50720;54.324;18.558;2022-11-15T02:01:09;81.00;;;33.28;;
42912;SDS011;50720;54.324;18.558;2022-11-15T02:06:13;78.35;;;31.42;;
42912;SDS011;50720;54.324;18.558;2022-11-15T02:08:44;78.22;;;32.28;;
42912;SDS011;50720;54.324;18.558;2022-11-15T02:11:13;83.38;;;34.28;;
42912;SDS011;50720;54.324;18.558;2022-11-15T02:13:43;76.20;;;32.15;;
42912;SDS011;50720;54.324;18.558;2022-11-15T02:16:14;69.05;;;30.95;;
42912;SDS011;50720;54.324;18.558;2022-11-15T02:18:53;71.63;;;32.10;;
42912;SDS011;50720;54.324;18.558;2022-11-15T02:21:30;65.82;;;29.90;;
42912;SDS011;50720;54.324;18.558;2022-11-15T02:30:19;76.85;;;31.60;;
42912;SDS011;50720;54.324;18.558;2022-11-15T02:32:52;93.18;;;33.97;;
42912;SDS011;50720;54.324;18.558;2022-11-15T02:35:28;98.40;;;38.25;;
42912;SDS011;50720;54.324;18.558;2022-11-15T02:38:05;100.88;;;37.85;;
42912;SDS011;50720;54.324;18.558;2022-11-15T02:40:39;91.05;;;35.95;;
42912;SDS011;50720;54.324;18.558;2022-11-15T02:43:17;100.63;;;39.75;;
42912;SDS011;50720;54.324;18.558;2022-11-15T02:46:14;97.60;;;37.13;;
42912;SDS011;50720;54.324;18.558;2022-11-15T02:48:48;96.82;;;35.47;;
42912;SDS011;50720;54.324;18.558;2022-11-15T02:51:18;105.63;;;39.60;;
42912;SDS011;50720;54.324;18.558;2022-11-15T02:53:48;95.68;;;39.58;;
42912;SDS011;50720;54.324;18.558;2022-11-15T02:56:18;108.38;;;39.90;;
42912;SDS011;50720;54.324;18.558;2022-11-15T02:58:50;111.85;;;40.13;;
42912;SDS011;50720;54.324;18.558;2022-11-15T03:01:37;109.50;;;41.55;;
42912;SDS011;50720;54.324;18.558;2022-11-15T03:04:17;104.50;;;37.65;;
42912;SDS011;50720;54.324;18.558;2022-11-15T03:06:53;108.40;;;39.22;;
42912;SDS011;50720;54.324;18.558;2022-11-15T03:09:29;100.03;;;38.70;;
42912;SDS011;50720;54.324;18.558;2022-11-15T03:12:05;112.30;;;37.00;;
42912;SDS011;50720;54.324;18.558;2022-11-15T03:14:40;97.80;;;37.20;;
42912;SDS011;50720;54.324;18.558;2022-11-15T03:17:23;108.65;;;38.08;;
42912;SDS011;50720;54.324;18.558;2022-11-15T03:19:55;110.18;;;40.17;;
42912;SDS011;50720;54.324;18.558;2022-11-15T03:22:28;109.75;;;38.97;;
42912;SDS011;50720;54.324;18.558;2022-11-15T03:25:02;122.07;;;42.80;;
42912;SDS011;50720;54.324;18.558;2022-11-15T03:27:36;112.38;;;39.47;;
42912;SDS011;50720;54.324;18.558;2022-11-15T03:30:10;112.53;;;39.45;;
42912;SDS011;50720;54.324;18.558;2022-11-15T03:32:44;110.47;;;40.47;;
42912;SDS011;50720;54.324;18.558;2022-11-15T03:35:20;116.13;;;40.60;;
42912;SDS011;50720;54.324;18.558;2022-11-15T03:37:51;113.93;;;40.72;;
42912;SDS011;50720;54.324;18.558;2022-11-15T03:40:24;102.85;;;39.00;;
42912;SDS011;50720;54.324;18.558;2022-11-15T03:43:00;100.63;;;37.47;;
42912;SDS011;50720;54.324;18.558;2022-11-15T03:45:36;103.47;;;36.63;;
42912;SDS011;50720;54.324;18.558;2022-11-15T03:48:13;95.57;;;37.25;;
42912;SDS011;50720;54.324;18.558;2022-11-15T03:50:47;98.72;;;33.38;;
42912;SDS011;50720;54.324;18.558;2022-11-15T03:53:18;100.03;;;36.05;;
42912;SDS011;50720;54.324;18.558;2022-11-15T03:55:47;103.55;;;37.75;;
42912;SDS011;50720;54.324;18.558;2022-11-15T03:58:17;95.30;;;35.15;;
42912;SDS011;50720;54.324;18.558;2022-11-15T04:00:46;97.20;;;36.60;;
42912;SDS011;50720;54.324;18.558;2022-11-15T04:03:18;92.75;;;34.47;;
42912;SDS011;50720;54.324;18.558;2022-11-15T04:05:47;97.13;;;36.05;;
42912;SDS011;50720;54.324;18.558;2022-11-15T04:08:17;85.15;;;33.90;;
42912;SDS011;50720;54.324;18.558;2022-11-15T04:10:48;89.28;;;34.70;;
42912;SDS011;50720;54.324;18.558;2022-11-15T04:13:18;103.05;;;34.40;;
42912;SDS011;50720;54.324;18.558;2022-11-15T04:15:47;89.20;;;34.97;;
42912;SDS011;50720;54.324;18.558;2022-11-15T04:18:19;96.32;;;35.78;;
42912;SDS011;50720;54.324;18.558;2022-11-15T04:20:48;90.53;;;32.78;;
42912;SDS011;50720;54.324;18.558;2022-11-15T04:23:35;95.85;;;33.13;;
42912;SDS011;50720;54.324;18.558;2022-11-15T04:26:21;81.15;;;31.83;;
42912;SDS011;50720;54.324;18.558;2022-11-15T04:28:52;82.97;;;31.35;;
42912;SDS011;50720;54.324;18.558;2022-11-15T04:31:38;83.97;;;30.92;;
42912;SDS011;50720;54.324;18.558;2022-11-15T04:34:10;75.67;;;32.77;;
42912;SDS011;50720;54.324;18.558;2022-11-15T04:36:39;75.78;;;30.85;;
42912;SDS011;50720;54.324;18.558;2022-11-15T04:39:26;82.95;;;30.80;;
42912;SDS011;50720;54.324;18.558;2022-11-15T04:41:55;85.68;;;29.95;;
42912;SDS011;50720;54.324;18.558;2022-11-15T04:44:25;81.18;;;29.23;;
42912;SDS011;50720;54.324;18.558;2022-11-15T04:46:54;80.50;;;33.13;;
42912;SDS011;50720;54.324;18.558;2022-11-15T04:49:26;86.18;;;32.35;;
42912;SDS011;50720;54.324;18.558;2022-11-15T04:51:55;77.32;;;30.17;;
42912;SDS011;50720;54.324;18.558;2022-11-15T04:54:25;67.60;;;31.17;;
42912;SDS011;50720;54.324;18.558;2022-11-15T04:56:55;66.47;;;28.02;;
42912;SDS011;50720;54.324;18.558;2022-11-15T04:59:25;70.88;;;28.80;;
42912;SDS011;50720;54.324;18.558;2022-11-15T05:01:54;82.20;;;32.22;;
42912;SDS011;50720;54.324;18.558;2022-11-15T05:04:26;66.47;;;27.85;;
42912;SDS011;50720;54.324;18.558;2022-11-15T05:06:54;68.18;;;28.52;;
42912;SDS011;50720;54.324;18.558;2022-11-15T05:09:24;81.50;;;32.13;;
42912;SDS011;50720;54.324;18.558;2022-11-15T05:11:54;84.70;;;30.17;;
42912;SDS011;50720;54.324;18.558;2022-11-15T05:14:24;78.72;;;30.80;;
42912;SDS011;50720;54.324;18.558;2022-11-15T05:16:54;80.05;;;29.38;;
42912;SDS011;50720;54.324;18.558;2022-11-15T05:19:25;79.63;;;27.80;;
42912;SDS011;50720;54.324;18.558;2022-11-15T05:21:55;67.43;;;26.48;;
42912;SDS011;50720;54.324;18.558;2022-11-15T05:24:25;61.92;;;26.92;;
42912;SDS011;50720;54.324;18.558;2022-11-15T05:26:54;70.47;;;27.35;;
42912;SDS011;50720;54.324;18.558;2022-11-15T05:29:24;72.15;;;26.67;;
42912;SDS011;50720;54.324;18.558;2022-11-15T05:31:54;61.22;;;25.83;;
42912;SDS011;50720;54.324;18.558;2022-11-15T05:34:25;53.58;;;23.63;;
42912;SDS011;50720;54.324;18.558;2022-11-15T05:36:55;58.50;;;24.73;;
42912;SDS011;50720;54.324;18.558;2022-11-15T05:39:26;54.63;;;23.15;;
42912;SDS011;50720;54.324;18.558;2022-11-15T05:41:55;68.85;;;26.50;;
42912;SDS011;50720;54.324;18.558;2022-11-15T05:44:30;63.58;;;26.13;;
42912;SDS011;50720;54.324;18.558;2022-11-15T05:47:00;57.50;;;26.53;;
42912;SDS011;50720;54.324;18.558;2022-11-15T05:49:33;51.58;;;22.85;;
42912;SDS011;50720;54.324;18.558;2022-11-15T05:52:05;62.78;;;26.52;;
42912;SDS011;50720;54.324;18.558;2022-11-15T05:54:39;58.58;;;25.88;;
42912;SDS011;50720;54.324;18.558;2022-11-15T05:57:09;64.38;;;24.73;;
42912;SDS011;50720;54.324;18.558;2022-11-15T05:59:39;65.60;;;25.17;;
42912;SDS011;50720;54.324;18.558;2022-11-15T06:02:10;55.45;;;23.92;;
42912;SDS011;50720;54.324;18.558;2022-11-15T06:04:42;75.13;;;27.27;;
42912;SDS011;50720;54.324;18.558;2022-11-15T06:07:11;66.43;;;27.15;;
42912;SDS011;50720;54.324;18.558;2022-11-15T06:09:41;54.87;;;24.07;;
42912;SDS011;50720;54.324;18.558;2022-11-15T06:12:11;52.85;;;22.25;;
42912;SDS011;50720;54.324;18.558;2022-11-15T06:14:41;66.43;;;25.37;;
42912;SDS011;50720;54.324;18.558;2022-11-15T06:17:10;67.35;;;25.83;;
42912;SDS011;50720;54.324;18.558;2022-11-15T06:19:41;62.10;;;24.67;;
42912;SDS011;50720;54.324;18.558;2022-11-15T06:22:11;55.65;;;24.30;;
42912;SDS011;50720;54.324;18.558;2022-11-15T06:24:41;61.83;;;25.48;;
42912;SDS011;50720;54.324;18.558;2022-11-15T06:27:11;49.65;;;22.42;;
42912;SDS011;50720;54.324;18.558;2022-11-15T06:29:40;55.63;;;22.73;;
42912;SDS011;50720;54.324;18.558;2022-11-15T06:32:10;54.33;;;22.80;;
42912;SDS011;50720;54.324;18.558;2022-11-15T06:34:41;53.00;;;22.75;;
42912;SDS011;50720;54.324;18.558;2022-11-15T06:37:11;47.97;;;19.85;;
42912;SDS011;50720;54.324;18.558;2022-11-15T06:39:41;47.03;;;21.35;;
42912;SDS011;50720;54.324;18.558;2022-11-15T06:42:10;52.92;;;23.00;;
42912;SDS011;50720;54.324;18.558;2022-11-15T06:44:40;59.28;;;23.80;;
42912;SDS011;50720;54.324;18.558;2022-11-15T06:47:09;55.05;;;21.92;;
42912;SDS011;50720;54.324;18.558;2022-11-15T06:49:38;52.58;;;22.10;;
42912;SDS011;50720;54.324;18.558;2022-11-15T06:52:10;49.97;;;22.17;;
42912;SDS011;50720;54.324;18.558;2022-11-15T06:54:39;55.80;;;23.98;;
42912;SDS011;50720;54.324;18.558;2022-11-15T06:57:09;60.53;;;22.90;;
42912;SDS011;50720;54.324;18.558;2022-11-15T06:59:38;50.40;;;22.23;;
42912;SDS011;50720;54.324;18.558;2022-11-15T07:02:11;55.22;;;22.83;;
42912;SDS011;50720;54.324;18.558;2022-11-15T07:04:41;50.30;;;22.85;;
42912;SDS011;50720;54.324;18.558;2022-11-15T07:07:12;57.00;;;23.33;;
42912;SDS011;50720;54.324;18.558;2022-11-15T07:09:42;48.90;;;22.23;;
42912;SDS011;50720;54.324;18.558;2022-11-15T07:12:12;46.22;;;20.92;;
42912;SDS011;50720;54.324;18.558;2022-11-15T07:14:42;48.13;;;22.63;;
42912;SDS011;50720;54.324;18.558;2022-11-15T07:17:11;50.50;;;21.20;;
42912;SDS011;50720;54.324;18.558;2022-11-15T07:19:41;46.08;;;21.55;;
42912;SDS011;50720;54.324;18.558;2022-11-15T07:22:11;49.05;;;22.13;;
42912;SDS011;50720;54.324;18.558;2022-11-15T07:24:42;48.85;;;21.60;;
42912;SDS011;50720;54.324;18.558;2022-11-15T07:27:11;46.30;;;22.50;;
42912;SDS011;50720;54.324;18.558;2022-11-15T07:29:41;52.13;;;23.20;;
42912;SDS011;50720;54.324;18.558;2022-11-15T07:32:11;43.40;;;20.30;;
42912;SDS011;50720;54.324;18.558;2022-11-15T07:34:41;49.92;;;22.65;;
42912;SDS011;50720;54.324;18.558;2022-11-15T07:37:13;51.55;;;21.38;;
42912;SDS011;50720;54.324;18.558;2022-11-15T07:39:44;51.25;;;24.48;;
42912;SDS011;50720;54.324;18.558;2022-11-15T07:42:14;44.35;;;20.65;;
42912;SDS011;50720;54.324;18.558;2022-11-15T07:45:01;50.42;;;21.13;;
42912;SDS011;50720;54.324;18.558;2022-11-15T07:47:31;45.60;;;19.90;;
42912;SDS011;50720;54.324;18.558;2022-11-15T07:50:00;51.38;;;21.15;;
42912;SDS011;50720;54.324;18.558;2022-11-15T07:52:31;48.70;;;21.65;;
42912;SDS011;50720;54.324;18.558;2022-11-15T07:55:01;49.70;;;21.17;;
42912;SDS011;50720;54.324;18.558;2022-11-15T07:57:30;48.95;;;21.90;;
42912;SDS011;50720;54.324;18.558;2022-11-15T08:00:00;49.60;;;21.33;;
42912;SDS011;50720;54.324;18.558;2022-11-15T08:02:30;44.78;;;21.17;;
42912;SDS011;50720;54.324;18.558;2022-11-15T08:05:00;48.38;;;21.38;;
42912;SDS011;50720;54.324;18.558;2022-11-15T08:07:32;44.90;;;21.55;;
42912;SDS011;50720;54.324;18.558;2022-11-15T08:10:02;51.47;;;21.17;;
42912;SDS011;50720;54.324;18.558;2022-11-15T08:12:32;53.13;;;19.83;;
42912;SDS011;50720;54.324;18.558;2022-11-15T08:15:04;41.47;;;20.50;;
42912;SDS011;50720;54.324;18.558;2022-11-15T08:17:34;45.30;;;20.10;;
42912;SDS011;50720;54.324;18.558;2022-11-15T08:20:04;47.33;;;21.25;;
42912;SDS011;50720;54.324;18.558;2022-11-15T08:22:35;52.13;;;21.67;;
42912;SDS011;50720;54.324;18.558;2022-11-15T08:25:06;52.28;;;22.67;;
42912;SDS011;50720;54.324;18.558;2022-11-15T08:27:35;57.53;;;23.83;;
42912;SDS011;50720;54.324;18.558;2022-11-15T08:30:05;47.90;;;22.25;;
42912;SDS011;50720;54.324;18.558;2022-11-15T08:32:36;50.20;;;22.98;;
42912;SDS011;50720;54.324;18.558;2022-11-15T08:35:06;57.50;;;24.60;;
42912;SDS011;50720;54.324;18.558;2022-11-15T08:37:37;51.97;;;22.05;;
42912;SDS011;50720;54.324;18.558;2022-11-15T08:40:08;53.25;;;22.48;;
42912;SDS011;50720;54.324;18.558;2022-11-15T08:42:37;51.50;;;22.77;;
42912;SDS011;50720;54.324;18.558;2022-11-15T08:45:08;46.23;;;21.90;;
42912;SDS011;50720;54.324;18.558;2022-11-15T08:47:38;45.63;;;21.55;;
42912;SDS011;50720;54.324;18.558;2022-11-15T08:50:08;50.53;;;21.05;;
42912;SDS011;50720;54.324;18.558;2022-11-15T08:52:39;40.15;;;18.83;;
42912;SDS011;50720;54.324;18.558;2022-11-15T08:55:09;40.70;;;18.77;;
42912;SDS011;50720;54.324;18.558;2022-11-15T08:57:39;43.17;;;19.63;;
42912;SDS011;50720;54.324;18.558;2022-11-15T09:00:09;42.60;;;20.40;;
42912;SDS011;50720;54.324;18.558;2022-11-15T09:05:09;42.47;;;20.58;;
42912;SDS011;50720;54.324;18.558;2022-11-15T09:07:40;45.22;;;21.02;;
42912;SDS011;50720;54.324;18.558;2022-11-15T09:10:10;44.92;;;20.77;;
42912;SDS011;50720;54.324;18.558;2022-11-15T09:12:39;49.22;;;20.42;;
42912;SDS011;50720;54.324;18.558;2022-11-15T09:15:09;49.38;;;21.80;;
42912;SDS011;50720;54.324;18.558;2022-11-15T09:17:39;43.10;;;19.25;;
42912;SDS011;50720;54.324;18.558;2022-11-15T09:20:09;52.50;;;21.67;;
42912;SDS011;50720;54.324;18.558;2022-11-15T09:22:40;49.30;;;20.48;;
42912;SDS011;50720;54.324;18.558;2022-11-15T09:25:10;46.88;;;20.95;;
42912;SDS011;50720;54.324;18.558;2022-11-15T09:27:39;46.10;;;21.25;;
42912;SDS011;50720;54.324;18.558;2022-11-15T09:30:10;51.22;;;22.13;;
42912;SDS011;50720;54.324;18.558;2022-11-15T09:32:40;44.33;;;21.63;;
42912;SDS011;50720;54.324;18.558;2022-11-15T09:35:10;49.73;;;21.47;;
42912;SDS011;50720;54.324;18.558;2022-11-15T09:37:41;46.50;;;20.67;;
42912;SDS011;50720;54.324;18.558;2022-11-15T09:40:11;52.15;;;20.75;;
42912;SDS011;50720;54.324;18.558;2022-11-15T09:42:46;47.75;;;20.77;;
42912;SDS011;50720;54.324;18.558;2022-11-15T09:45:26;47.88;;;19.90;;
42912;SDS011;50720;54.324;18.558;2022-11-15T09:48:05;46.83;;;19.95;;
42912;SDS011;50720;54.324;18.558;2022-11-15T09:50:51;47.03;;;20.52;;
42912;SDS011;50720;54.324;18.558;2022-11-15T09:53:29;49.60;;;21.08;;
42912;SDS011;50720;54.324;18.558;2022-11-15T09:56:25;49.58;;;22.23;;
42912;SDS011;50720;54.324;18.558;2022-11-15T09:58:58;47.35;;;21.30;;
42912;SDS011;50720;54.324;18.558;2022-11-15T10:04:10;56.88;;;22.48;;
42912;SDS011;50720;54.324;18.558;2022-11-15T10:06:40;51.37;;;22.37;;
42912;SDS011;50720;54.324;18.558;2022-11-15T10:09:18;51.97;;;22.42;;
42912;SDS011;50720;54.324;18.558;2022-11-15T10:11:51;48.47;;;22.00;;
42912;SDS011;50720;54.324;18.558;2022-11-15T10:14:21;52.30;;;22.88;;
42912;SDS011;50720;54.324;18.558;2022-11-15T10:20:07;42.20;;;20.02;;
42912;SDS011;50720;54.324;18.558;2022-11-15T10:22:45;48.10;;;22.98;;
42912;SDS011;50720;54.324;18.558;2022-11-15T10:25:19;46.22;;;22.40;;
42912;SDS011;50720;54.324;18.558;2022-11-15T10:27:55;48.53;;;19.67;;
42912;SDS011;50720;54.324;18.558;2022-11-15T10:30:32;44.85;;;20.60;;
42912;SDS011;50720;54.324;18.558;2022-11-15T10:33:12;45.30;;;20.88;;
42912;SDS011;50720;54.324;18.558;2022-11-15T10:35:48;40.40;;;18.85;;
42912;SDS011;50720;54.324;18.558;2022-11-15T10:38:32;39.40;;;18.83;;
42912;SDS011;50720;54.324;18.558;2022-11-15T10:41:21;44.75;;;22.75;;
42912;SDS011;50720;54.324;18.558;2022-11-15T10:44:03;42.10;;;21.00;;
42912;SDS011;50720;54.324;18.558;2022-11-15T10:50:01;46.40;;;22.08;;
42912;SDS011;50720;54.324;18.558;2022-11-15T10:52:33;44.38;;;22.13;;
42912;SDS011;50720;54.324;18.558;2022-11-15T10:55:19;46.15;;;21.10;;
42912;SDS011;50720;54.324;18.558;2022-11-15T10:57:54;42.50;;;20.17;;
42912;SDS011;50720;54.324;18.558;2022-11-15T11:00:30;43.38;;;21.20;;
42912;SDS011;50720;54.324;18.558;2022-11-15T11:03:04;49.28;;;22.63;;
42912;SDS011;50720;54.324;18.558;2022-11-15T11:05:40;48.13;;;22.02;;
42912;SDS011;50720;54.324;18.558;2022-11-15T11:08:20;43.35;;;21.73;;
42912;SDS011;50720;54.324;18.558;2022-11-15T11:10:52;46.17;;;22.45;;
42912;SDS011;50720;54.324;18.558;2022-11-15T11:13:31;47.00;;;22.63;;
42912;SDS011;50720;54.324;18.558;2022-11-15T11:16:09;46.05;;;21.10;;
42912;SDS011;50720;54.324;18.558;2022-11-15T11:19:08;41.78;;;21.20;;
42912;SDS011;50720;54.324;18.558;2022-11-15T11:21:59;39.40;;;20.17;;
42912;SDS011;50720;54.324;18.558;2022-11-15T11:24:36;44.63;;;20.60;;
42912;SDS011;50720;54.324;18.558;2022-11-15T11:27:16;42.92;;;19.70;;
42912;SDS011;50720;54.324;18.558;2022-11-15T11:29:57;43.40;;;20.38;;
42912;SDS011;50720;54.324;18.558;2022-11-15T11:32:37;37.40;;;19.35;;
42912;SDS011;50720;54.324;18.558;2022-11-15T11:35:23;38.03;;;19.45;;
42912;SDS011;50720;54.324;18.558;2022-11-15T11:38:01;45.17;;;20.50;;
42912;SDS011;50720;54.324;18.558;2022-11-15T11:40:43;37.88;;;18.60;;
42912;SDS011;50720;54.324;18.558;2022-11-15T11:43:23;37.97;;;19.92;;
42912;SDS011;50720;54.324;18.558;2022-11-15T11:46:04;44.65;;;21.50;;
42912;SDS011;50720;54.324;18.558;2022-11-15T11:48:50;40.97;;;21.85;;
42912;SDS011;50720;54.324;18.558;2022-11-15T11:51:24;42.15;;;21.90;;
42912;SDS011;50720;54.324;18.558;2022-11-15T11:53:58;42.28;;;21.63;;
42912;SDS011;50720;54.324;18.558;2022-11-15T11:56:33;46.33;;;22.13;;
42912;SDS011;50720;54.324;18.558;2022-11-15T11:59:10;43.95;;;22.20;;
42912;SDS011;50720;54.324;18.558;2022-11-15T12:01:46;47.95;;;21.33;;
42912;SDS011;50720;54.324;18.558;2022-11-15T12:04:18;51.13;;;22.75;;
42912;SDS011;50720;54.324;18.558;2022-11-15T12:06:50;47.95;;;21.75;;
42912;SDS011;50720;54.324;18.558;2022-11-15T12:09:26;49.25;;;21.92;;
42912;SDS011;50720;54.324;18.558;2022-11-15T12:12:00;52.92;;;23.75;;
42912;SDS011;50720;54.324;18.558;2022-11-15T12:14:38;50.55;;;24.40;;
42912;SDS011;50720;54.324;18.558;2022-11-15T12:17:12;56.20;;;24.98;;
42912;SDS011;50720;54.324;18.558;2022-11-15T12:19:43;61.95;;;28.08;;
42912;SDS011;50720;54.324;18.558;2022-11-15T12:22:15;72.20;;;31.43;;
42912;SDS011;50720;54.324;18.558;2022-11-15T12:24:51;66.82;;;28.83;;
42912;SDS011;50720;54.324;18.558;2022-11-15T12:27:28;64.50;;;30.50;;
42912;SDS011;50720;54.324;18.558;2022-11-15T12:30:08;66.40;;;29.42;;
42912;SDS011;50720;54.324;18.558;2022-11-15T12:32:49;71.43;;;28.95;;
42912;SDS011;50720;54.324;18.558;2022-11-15T12:35:26;76.28;;;31.52;;
42912;SDS011;50720;54.324;18.558;2022-11-15T12:37:58;77.05;;;31.73;;
42912;SDS011;50720;54.324;18.558;2022-11-15T12:40:30;70.95;;;31.13;;
42912;SDS011;50720;54.324;18.558;2022-11-15T12:46:18;75.93;;;29.17;;
42912;SDS011;50720;54.324;18.558;2022-11-15T12:48:55;102.50;;;32.25;;
42912;SDS011;50720;54.324;18.558;2022-11-15T12:57:33;71.05;;;30.10;;
42912;SDS011;50720;54.324;18.558;2022-11-15T13:03:17;80.50;;;32.10;;
42912;SDS011;50720;54.324;18.558;2022-11-15T13:09:03;78.88;;;32.97;;
42912;SDS011;50720;54.324;18.558;2022-11-15T13:12:11;81.80;;;33.95;;
42912;SDS011;50720;54.324;18.558;2022-11-15T13:15:35;73.40;;;31.02;;
42912;SDS011;50720;54.324;18.558;2022-11-15T13:18:28;81.05;;;31.73;;
42912;SDS011;50720;54.324;18.558;2022-11-15T13:21:02;85.95;;;31.80;;
42912;SDS011;50720;54.324;18.558;2022-11-15T13:23:54;80.80;;;33.65;;
42912;SDS011;50720;54.324;18.558;2022-11-15T13:26:26;73.03;;;30.73;;
42912;SDS011;50720;54.324;18.558;2022-11-15T13:31:27;76.10;;;30.90;;
42912;SDS011;50720;54.324;18.558;2022-11-15T13:34:12;74.65;;;31.75;;
42912;SDS011;50720;54.324;18.558;2022-11-15T13:37:09;71.55;;;28.08;;
42912;SDS011;50720;54.324;18.558;2022-11-15T13:42:51;73.03;;;30.95;;
42912;SDS011;50720;54.324;18.558;2022-11-15T13:45:21;85.60;;;35.13;;
42912;SDS011;50720;54.324;18.558;2022-11-15T13:47:53;85.05;;;34.50;;
42912;SDS011;50720;54.324;18.558;2022-11-15T13:50:25;93.63;;;34.75;;
42912;SDS011;50720;54.324;18.558;2022-11-15T13:52:57;92.97;;;34.97;;
42912;SDS011;50720;54.324;18.558;2022-11-15T13:55:29;79.05;;;31.70;;
42912;SDS011;50720;54.324;18.558;2022-11-15T13:58:03;84.47;;;31.48;;
42912;SDS011;50720;54.324;18.558;2022-11-15T14:00:36;96.35;;;33.53;;
42912;SDS011;50720;54.324;18.558;2022-11-15T14:03:12;75.53;;;30.67;;
42912;SDS011;50720;54.324;18.558;2022-11-15T14:05:46;78.07;;;31.35;;
42912;SDS011;50720;54.324;18.558;2022-11-15T14:08:39;87.00;;;32.42;;
42912;SDS011;50720;54.324;18.558;2022-11-15T14:11:13;81.68;;;29.55;;
42912;SDS011;50720;54.324;18.558;2022-11-15T14:14:01;75.60;;;27.92;;
42912;SDS011;50720;54.324;18.558;2022-11-15T14:16:40;69.10;;;27.17;;
42912;SDS011;50720;54.324;18.558;2022-11-15T14:19:11;71.53;;;27.60;;
42912;SDS011;50720;54.324;18.558;2022-11-15T14:22:07;79.82;;;32.40;;
42912;SDS011;50720;54.324;18.558;2022-11-15T14:24:43;78.32;;;27.88;;
42912;SDS011;50720;54.324;18.558;2022-11-15T14:29:49;72.95;;;26.30;;
42912;SDS011;50720;54.324;18.558;2022-11-15T14:32:20;72.15;;;26.83;;
42912;SDS011;50720;54.324;18.558;2022-11-15T14:34:53;64.68;;;26.08;;
42912;SDS011;50720;54.324;18.558;2022-11-15T14:37:24;61.35;;;25.13;;
42912;SDS011;50720;54.324;18.558;2022-11-15T14:39:55;69.75;;;25.92;;
42912;SDS011;50720;54.324;18.558;2022-11-15T14:42:25;67.63;;;25.90;;
42912;SDS011;50720;54.324;18.558;2022-11-15T14:44:56;65.47;;;25.77;;
42912;SDS011;50720;54.324;18.558;2022-11-15T14:49:55;63.03;;;21.15;;
42912;SDS011;50720;54.324;18.558;2022-11-15T14:52:25;67.32;;;26.38;;
42912;SDS011;50720;54.324;18.558;2022-11-15T14:54:59;67.13;;;23.17;;
42912;SDS011;50720;54.324;18.558;2022-11-15T15:00:02;58.53;;;23.20;;
42912;SDS011;50720;54.324;18.558;2022-11-15T15:02:32;57.78;;;24.48;;
42912;SDS011;50720;54.324;18.558;2022-11-15T15:05:09;68.07;;;25.48;;
42912;SDS011;50720;54.324;18.558;2022-11-15T15:07:43;71.30;;;24.42;;
42912;SDS011;50720;54.324;18.558;2022-11-15T15:10:13;65.60;;;25.70;;
42912;SDS011;50720;54.324;18.558;2022-11-15T15:13:04;63.75;;;24.70;;
42912;SDS011;50720;54.324;18.558;2022-11-15T15:18:05;60.22;;;23.30;;
42912;SDS011;50720;54.324;18.558;2022-11-15T15:20:36;59.08;;;24.75;;
42912;SDS011;50720;54.324;18.558;2022-11-15T15:23:09;61.08;;;23.02;;
42912;SDS011;50720;54.324;18.558;2022-11-15T15:25:44;60.25;;;25.33;;
42912;SDS011;50720;54.324;18.558;2022-11-15T15:28:16;55.28;;;20.83;;
42912;SDS011;50720;54.324;18.558;2022-11-15T15:30:47;56.95;;;22.88;;
42912;SDS011;50720;54.324;18.558;2022-11-15T15:33:17;67.60;;;26.80;;
42912;SDS011;50720;54.324;18.558;2022-11-15T15:35:47;64.93;;;24.33;;